createdAt,value
2022-10-17T00:00:19.704Z,7.57
2022-10-17T00:02:21.181Z,4.63
2022-10-17T00:04:22.668Z,8.15
2022-10-17T00:06:24.200Z,11.15
2022-10-17T00:08:25.758Z,12.23
2022-10-17T00:10:27.195Z,4.75
2022-10-17T00:12:28.709Z,7.13
2022-10-17T00:14:30.150Z,8.95
2022-10-17T00:16:36.940Z,4.95
2022-10-17T00:18:38.388Z,8.93
2022-10-17T00:20:39.871Z,6.85
2022-10-17T00:22:41.716Z,4.15
2022-10-17T00:24:43.262Z,6.28
2022-10-17T00:26:47.618Z,10.18
2022-10-17T00:28:51.446Z,8.75
2022-10-17T00:30:57.350Z,11.48
2022-10-17T00:32:58.769Z,7.45
2022-10-17T00:35:00.374Z,4.43
2022-10-17T00:37:01.820Z,6.55
2022-10-17T00:39:03.899Z,5.63
2022-10-17T00:41:05.709Z,5.53
2022-10-17T00:43:17.695Z,7.85
2022-10-17T00:45:21.531Z,6.22
2022-10-17T00:47:23.413Z,5.47
2022-10-17T00:49:27.743Z,5.50
2022-10-17T00:51:53.948Z,5.88
2022-10-17T00:53:56.423Z,4.53
2022-10-17T00:55:57.849Z,7.03
2022-10-17T00:58:02.359Z,7.30
2022-10-17T01:00:08.921Z,3.92
2022-10-17T01:02:13.997Z,4.50
2022-10-17T01:04:15.796Z,2.72
2022-10-17T01:06:17.444Z,10.38
2022-10-17T01:08:18.993Z,4.18
2022-10-17T01:12:32.602Z,3.28
2022-10-17T01:15:03.295Z,6.22
2022-10-17T01:17:29.235Z,4.53
2022-10-17T01:20:24.280Z,4.15
2022-10-17T01:22:41.043Z,5.53
2022-10-17T01:25:01.498Z,4.25
2022-10-17T01:27:05.673Z,3.42
2022-10-17T01:29:41.946Z,4.05
2022-10-17T01:32:00.050Z,4.38
2022-10-17T01:34:12.334Z,2.55
2022-10-17T01:36:35.700Z,4.90
2022-10-17T01:38:50.351Z,3.92
2022-10-17T01:41:05.956Z,7.35
2022-10-17T01:43:14.992Z,3.65
2022-10-17T01:45:41.273Z,6.43
2022-10-17T01:47:43.197Z,6.78
2022-10-17T01:49:46.811Z,6.05
2022-10-17T01:51:56.526Z,3.63
2022-10-17T01:54:23.728Z,7.43
2022-10-17T01:56:27.930Z,4.88
2022-10-17T01:58:38.289Z,3.60
2022-10-17T02:00:43.263Z,4.20
2022-10-17T02:02:46.580Z,8.85
2022-10-17T02:04:50.941Z,4.10
2022-10-17T02:06:52.386Z,4.10
2022-10-17T02:08:53.805Z,3.22
2022-10-17T02:11:02.170Z,11.23
2022-10-17T02:13:31.372Z,13.05
2022-10-17T02:16:03.745Z,10.13
2022-10-17T02:18:10.920Z,3.30
2022-10-17T02:20:37.248Z,3.28
2022-10-17T02:22:41.719Z,3.97
2022-10-17T02:24:52.460Z,3.78
2022-10-17T02:27:09.359Z,9.23
2022-10-17T02:29:19.598Z,4.68
2022-10-17T02:31:28.717Z,4.38
2022-10-17T02:33:39.676Z,5.75
2022-10-17T02:35:46.406Z,4.22
2022-10-17T02:37:49.002Z,2.40
2022-10-17T02:39:50.971Z,3.63
2022-10-17T02:41:54.653Z,4.47
2022-10-17T02:43:58.808Z,2.58
2022-10-17T02:46:04.115Z,3.03
2022-10-17T02:48:37.299Z,5.25
2022-10-17T02:50:52.709Z,3.83
2022-10-17T02:53:06.908Z,4.07
2022-10-17T02:55:41.193Z,4.20
2022-10-17T02:57:49.980Z,3.13
2022-10-17T02:59:52.299Z,3.10
2022-10-17T03:01:54.451Z,15.10
2022-10-17T03:04:13.725Z,4.03
2022-10-17T03:06:15.719Z,3.55
2022-10-17T03:08:17.137Z,4.60
2022-10-17T03:10:19.259Z,6.65
2022-10-17T03:12:20.673Z,9.23
2022-10-17T03:14:22.094Z,14.43
2022-10-17T03:16:23.609Z,12.45
2022-10-17T03:18:25.181Z,9.98
2022-10-17T03:20:26.625Z,12.55
2022-10-17T03:22:28.373Z,6.63
2022-10-17T03:24:29.957Z,11.07
2022-10-17T03:26:31.416Z,10.70
2022-10-17T03:28:33.254Z,10.55
2022-10-17T03:30:34.777Z,7.57
2022-10-17T03:32:36.260Z,6.45
2022-10-17T03:34:37.678Z,6.60
2022-10-17T03:36:39.127Z,4.97
2022-10-17T03:38:41.464Z,5.25
2022-10-17T03:40:42.889Z,4.63
2022-10-17T03:42:44.338Z,6.68
2022-10-17T03:44:45.777Z,4.10
2022-10-17T03:46:47.246Z,4.78
2022-10-17T03:48:48.684Z,5.60
2022-10-17T03:50:50.491Z,4.90
2022-10-17T03:52:51.899Z,3.53
2022-10-17T03:54:53.312Z,7.82
2022-10-17T03:56:55.059Z,4.45
2022-10-17T03:58:56.550Z,4.68
2022-10-17T04:00:58.004Z,3.80
2022-10-17T04:02:59.460Z,3.40
2022-10-17T04:05:01.887Z,7.00
2022-10-17T04:07:03.500Z,6.65
2022-10-17T04:09:06.826Z,6.00
2022-10-17T04:11:10.735Z,6.15
2022-10-17T04:13:12.141Z,3.75
2022-10-17T04:15:13.636Z,6.95
2022-10-17T04:17:15.073Z,4.88
2022-10-17T04:19:16.566Z,3.42
2022-10-17T04:21:18.667Z,5.32
2022-10-17T04:23:21.250Z,6.40
2022-10-17T04:25:22.760Z,4.25
2022-10-17T04:27:24.243Z,5.03
2022-10-17T04:29:26.332Z,3.38
2022-10-17T04:31:27.803Z,6.43
2022-10-17T04:33:29.501Z,8.15
2022-10-17T04:35:31.022Z,11.30
2022-10-17T04:37:32.441Z,5.95
2022-10-17T04:39:34.003Z,4.32
2022-10-17T04:41:35.467Z,6.70
2022-10-17T04:43:38.507Z,4.53
2022-10-17T04:45:39.957Z,4.53
2022-10-17T04:47:41.394Z,4.57
2022-10-17T04:49:42.868Z,3.75
2022-10-17T04:51:44.309Z,3.75
2022-10-17T04:53:46.113Z,7.30
2022-10-17T04:55:47.644Z,8.32
2022-10-17T04:57:49.068Z,7.60
2022-10-17T04:59:51.147Z,3.85
2022-10-17T05:01:52.568Z,4.03
2022-10-17T05:03:54.301Z,3.47
2022-10-17T05:05:59.216Z,4.07
2022-10-17T05:08:00.676Z,10.45
2022-10-17T05:10:02.190Z,5.97
2022-10-17T05:12:05.492Z,7.35
2022-10-17T05:14:09.515Z,4.55
2022-10-17T05:16:11.135Z,8.65
2022-10-17T05:18:12.564Z,4.78
2022-10-17T05:20:14.100Z,5.13
2022-10-17T05:22:15.737Z,3.85
2022-10-17T05:24:17.288Z,7.93
2022-10-17T05:26:19.499Z,7.10
2022-10-17T05:28:21.104Z,5.32
2022-10-17T05:30:22.638Z,4.40
2022-10-17T05:32:24.066Z,7.50
2022-10-17T05:34:25.691Z,4.57
2022-10-17T05:36:27.261Z,4.43
2022-10-17T05:38:29.166Z,3.78
2022-10-17T05:40:30.585Z,3.97
2022-10-17T05:42:32.466Z,4.57
2022-10-17T05:44:34.366Z,3.60
2022-10-17T05:46:36.039Z,4.85
2022-10-17T05:48:37.500Z,4.85
2022-10-17T05:50:39.703Z,4.18
2022-10-17T05:52:42.923Z,3.70
2022-10-17T05:54:47.772Z,4.10
2022-10-17T05:56:53.195Z,5.45
2022-10-17T05:58:58.641Z,6.20
2022-10-17T06:01:07.095Z,6.88
2022-10-17T06:03:12.402Z,7.35
2022-10-17T06:05:14.708Z,6.53
2022-10-17T06:07:17.024Z,3.90
2022-10-17T06:09:18.482Z,6.97
2022-10-17T06:11:19.902Z,4.57
2022-10-17T06:13:21.355Z,6.55
2022-10-17T06:15:22.878Z,4.55
2022-10-17T06:17:24.590Z,4.93
2022-10-17T06:19:26.146Z,5.32
2022-10-17T06:21:28.255Z,6.78
2022-10-17T06:23:29.741Z,5.93
2022-10-17T06:25:32.205Z,4.25
2022-10-17T06:27:33.618Z,4.75
2022-10-17T06:29:35.061Z,10.02
2022-10-17T06:31:36.497Z,4.97
2022-10-17T06:33:38.442Z,6.40
2022-10-17T06:35:39.868Z,6.18
2022-10-17T06:37:41.664Z,8.52
2022-10-17T06:39:43.322Z,6.60
2022-10-17T06:41:44.900Z,7.63
2022-10-17T06:43:47.421Z,5.30
2022-10-17T06:45:48.969Z,4.97
2022-10-17T06:47:50.527Z,7.88
2022-10-17T06:49:51.977Z,4.90
2022-10-17T06:51:53.604Z,7.88
2022-10-17T06:53:58.064Z,5.10
2022-10-17T06:56:04.076Z,7.50
2022-10-17T06:58:05.522Z,6.20
2022-10-17T07:00:07.559Z,4.63
2022-10-17T07:02:10.879Z,5.93
2022-10-17T07:04:12.342Z,4.50
2022-10-17T07:06:13.849Z,10.20
2022-10-17T07:08:15.307Z,7.57
2022-10-17T07:10:16.823Z,9.68
2022-10-17T07:12:18.270Z,5.07
2022-10-17T07:14:19.696Z,4.72
2022-10-17T07:16:21.587Z,4.60
2022-10-17T07:18:23.036Z,4.70
2022-10-17T07:20:24.541Z,4.65
2022-10-17T07:22:26.015Z,5.32
2022-10-17T07:24:27.812Z,5.68
2022-10-17T07:26:29.310Z,4.70
2022-10-17T07:28:30.767Z,6.30
2022-10-17T07:30:33.118Z,8.13
2022-10-17T07:32:34.626Z,5.50
2022-10-17T07:34:36.562Z,7.38
2022-10-17T07:36:37.984Z,9.98
2022-10-17T07:38:39.751Z,8.77
2022-10-17T07:40:41.170Z,5.38
2022-10-17T07:42:42.641Z,12.23
2022-10-17T07:44:47.297Z,10.82
2022-10-17T07:46:48.770Z,4.65
2022-10-17T07:48:50.280Z,8.77
2022-10-17T07:50:51.699Z,9.23
2022-10-17T07:52:53.130Z,7.82
2022-10-17T07:54:54.617Z,4.80
2022-10-17T07:56:56.028Z,5.32
2022-10-17T08:01:04.558Z,10.05
2022-10-17T08:03:06.622Z,5.78
2022-10-17T08:05:08.414Z,5.18
2022-10-17T08:07:20.923Z,4.68
2022-10-17T08:09:24.605Z,4.65
2022-10-17T08:11:26.407Z,6.95
2022-10-17T08:13:27.985Z,8.63
2022-10-17T08:15:31.847Z,4.30
2022-10-17T08:17:38.071Z,4.28
2022-10-17T08:19:40.593Z,3.83
2022-10-17T08:21:43.601Z,5.30
2022-10-17T08:23:45.133Z,7.75
2022-10-17T08:25:46.669Z,3.88
2022-10-17T08:27:48.236Z,6.20
2022-10-17T08:29:52.848Z,7.28
2022-10-17T08:31:58.683Z,3.92
2022-10-17T08:34:02.508Z,4.97
2022-10-17T08:36:05.324Z,6.25
2022-10-17T08:38:09.062Z,4.90
2022-10-17T08:40:22.522Z,7.70
2022-10-17T08:42:48.363Z,5.28
2022-10-17T08:45:08.400Z,10.40
2022-10-17T08:47:19.646Z,7.05
2022-10-17T08:49:47.728Z,7.05
2022-10-17T08:51:54.629Z,6.32
2022-10-17T08:54:09.400Z,5.60
2022-10-17T08:56:25.140Z,5.05
2022-10-17T08:58:41.689Z,6.40
2022-10-17T09:01:02.622Z,7.20
2022-10-17T09:03:14.367Z,8.95
2022-10-17T09:05:34.787Z,6.13
2022-10-17T09:08:02.359Z,11.82
2022-10-17T09:10:04.368Z,8.88
2022-10-17T09:12:14.293Z,9.38
2022-10-17T09:14:35.067Z,4.93
2022-10-17T09:16:46.426Z,2.85
2022-10-17T09:19:07.548Z,5.55
2022-10-17T09:21:21.420Z,2.83
2022-10-17T09:23:27.725Z,3.75
2022-10-17T09:25:35.166Z,10.88
2022-10-17T09:27:42.286Z,5.03
2022-10-17T09:29:47.783Z,8.13
2022-10-17T09:32:03.517Z,8.40
2022-10-17T09:34:05.032Z,6.68
2022-10-17T09:36:14.417Z,5.65
2022-10-17T09:38:22.544Z,8.57
2022-10-17T09:40:32.787Z,5.22
2022-10-17T09:42:35.541Z,7.63
2022-10-17T09:44:47.603Z,4.22
2022-10-17T09:47:06.062Z,2.90
2022-10-17T09:51:25.813Z,3.60
2022-10-17T09:53:33.495Z,3.83
2022-10-17T09:55:43.267Z,3.70
2022-10-17T09:58:00.526Z,3.22
2022-10-17T10:00:05.890Z,7.40
2022-10-17T10:02:14.731Z,7.40
2022-10-17T10:04:17.698Z,13.57
2022-10-17T10:06:21.717Z,2.80
2022-10-17T10:08:26.269Z,5.00
2022-10-17T10:10:29.752Z,4.03
2022-10-17T10:12:36.511Z,3.40
2022-10-17T10:14:39.727Z,5.68
2022-10-17T10:16:46.932Z,5.95
2022-10-17T10:18:50.999Z,7.22
2022-10-17T10:21:11.017Z,4.53
2022-10-17T10:23:17.188Z,7.68
2022-10-17T10:25:19.578Z,4.10
2022-10-17T10:27:29.443Z,10.48
2022-10-17T10:29:34.239Z,6.00
2022-10-17T10:31:39.238Z,8.02
2022-10-17T10:33:45.911Z,4.85
2022-10-17T10:35:57.400Z,7.22
2022-10-17T10:38:01.853Z,3.30
2022-10-17T10:40:06.922Z,6.63
2022-10-17T10:42:19.739Z,4.03
2022-10-17T10:44:27.059Z,4.70
2022-10-17T10:46:28.618Z,7.47
2022-10-17T10:48:37.358Z,6.05
2022-10-17T10:50:53.026Z,9.63
2022-10-17T10:53:07.461Z,4.82
2022-10-17T10:55:23.184Z,10.48
2022-10-17T10:57:28.870Z,9.73
2022-10-17T10:59:32.978Z,5.22
2022-10-17T11:01:46.705Z,5.18
2022-10-17T11:04:12.120Z,8.50
2022-10-17T11:06:21.357Z,5.30
2022-10-17T11:08:43.172Z,7.03
2022-10-17T11:11:18.302Z,8.48
2022-10-17T11:13:31.555Z,3.28
2022-10-17T11:15:51.529Z,12.75
2022-10-17T11:18:00.777Z,7.30
2022-10-17T11:20:15.233Z,9.20
2022-10-17T11:22:26.630Z,5.40
2022-10-17T11:24:57.146Z,8.27
2022-10-17T11:27:03.709Z,11.13
2022-10-17T11:29:09.061Z,10.05
2022-10-17T11:31:14.785Z,14.55
2022-10-17T11:33:30.520Z,8.30
2022-10-17T11:35:44.384Z,13.00
2022-10-17T11:37:52.805Z,12.20
2022-10-17T11:40:02.150Z,5.95
2022-10-17T11:42:09.692Z,13.05
2022-10-17T11:44:32.852Z,11.55
2022-10-17T11:46:37.154Z,6.57
2022-10-17T11:48:52.540Z,13.93
2022-10-17T11:53:50.965Z,8.30
2022-10-17T11:55:54.499Z,8.13
2022-10-17T11:58:37.625Z,9.75
2022-10-17T12:01:05.959Z,8.20
2022-10-17T12:05:41.813Z,10.73
2022-10-17T12:08:09.552Z,8.25
2022-10-17T12:10:29.423Z,7.15
2022-10-17T12:12:33.398Z,10.07
2022-10-17T12:14:40.923Z,9.85
2022-10-17T12:16:45.113Z,14.63
2022-10-17T12:19:10.584Z,15.07
2022-10-17T12:21:12.272Z,10.73
2022-10-17T12:23:13.640Z,13.90
2022-10-17T12:25:31.586Z,6.57
2022-10-17T12:27:47.422Z,12.65
2022-10-17T12:29:50.482Z,10.07
2022-10-17T12:31:51.994Z,7.35
2022-10-17T12:33:55.932Z,8.15
2022-10-17T12:36:21.176Z,8.45
2022-10-17T12:38:27.753Z,8.68
2022-10-17T12:40:34.748Z,10.85
2022-10-17T12:42:47.655Z,11.43
2022-10-17T12:44:51.160Z,12.68
2022-10-17T12:47:29.519Z,13.40
2022-10-17T12:49:54.390Z,11.40
2022-10-17T12:52:27.577Z,11.10
2022-10-17T12:54:31.400Z,11.90
2022-10-17T12:56:49.845Z,9.50
2022-10-17T12:58:51.771Z,8.48
2022-10-17T13:01:22.577Z,14.18
2022-10-17T13:03:20.457Z,9.43
2022-10-17T13:05:30.579Z,7.75
2022-10-17T13:07:34.622Z,10.02
2022-10-17T13:09:38.909Z,9.20
2022-10-17T13:11:40.468Z,11.57
2022-10-17T13:13:45.317Z,7.60
2022-10-17T13:15:49.283Z,8.38
2022-10-17T13:17:59.362Z,10.88
2022-10-17T13:20:01.036Z,21.38
2022-10-17T13:22:07.118Z,15.85
2022-10-17T13:24:30.304Z,18.38
2022-10-17T13:26:31.754Z,17.50
2022-10-17T13:28:37.141Z,8.48
2022-10-17T13:30:47.855Z,15.07
2022-10-17T13:32:50.971Z,15.30
2022-10-17T13:35:08.348Z,10.82
2022-10-17T13:37:14.757Z,15.73
2022-10-17T13:39:23.043Z,14.18
2022-10-17T13:41:37.456Z,8.88
2022-10-17T13:43:39.016Z,14.55
2022-10-17T13:45:47.913Z,10.75
2022-10-17T13:47:49.594Z,14.15
2022-10-17T13:49:55.184Z,11.48
2022-10-17T13:51:58.783Z,15.60
2022-10-17T13:54:00.453Z,11.88
2022-10-17T13:56:26.351Z,9.05
2022-10-17T13:58:26.068Z,10.30
2022-10-17T14:00:27.770Z,10.40
2022-10-17T14:02:31.765Z,10.10
2022-10-17T14:04:50.478Z,9.50
2022-10-17T14:06:55.434Z,9.23
2022-10-17T14:09:06.380Z,10.63
2022-10-17T14:11:24.074Z,10.63
2022-10-17T14:13:33.727Z,9.52
2022-10-17T14:15:36.781Z,12.40
2022-10-17T14:17:39.426Z,10.20
2022-10-17T14:19:41.106Z,11.45
2022-10-17T14:21:44.515Z,11.63
2022-10-17T14:23:46.341Z,10.38
2022-10-17T14:25:47.900Z,11.85
2022-10-17T14:28:03.595Z,8.85
2022-10-17T14:30:51.667Z,9.32
2022-10-17T14:32:48.434Z,8.25
2022-10-17T14:35:00.714Z,8.05
2022-10-17T14:37:24.261Z,13.23
2022-10-17T14:39:27.154Z,8.52
2022-10-17T14:41:47.640Z,9.38
2022-10-17T14:43:54.924Z,8.30
2022-10-17T14:46:02.877Z,10.85
2022-10-17T14:48:12.840Z,9.00
2022-10-17T14:50:14.265Z,8.30
2022-10-17T14:52:18.284Z,9.75
2022-10-17T14:54:26.937Z,7.43
2022-10-17T14:56:36.713Z,10.02
2022-10-17T14:58:38.244Z,13.10
2022-10-17T15:00:39.675Z,9.27
2022-10-17T15:02:41.118Z,9.88
2022-10-17T15:04:42.575Z,8.15
2022-10-17T15:06:44.796Z,10.80
2022-10-17T15:08:46.377Z,7.03
2022-10-17T15:10:49.752Z,8.82
2022-10-17T15:12:58.756Z,8.57
2022-10-17T15:15:01.474Z,9.18
2022-10-17T15:17:02.897Z,7.28
2022-10-17T15:19:04.330Z,8.38
2022-10-17T15:21:19.091Z,5.63
2022-10-17T15:23:27.541Z,6.15
2022-10-17T15:25:31.231Z,5.72
2022-10-17T15:27:33.034Z,5.18
2022-10-17T15:29:34.715Z,5.57
2022-10-17T15:31:36.138Z,5.70
2022-10-17T15:33:37.561Z,9.60
2022-10-17T15:35:39.071Z,6.45
2022-10-17T15:37:40.576Z,6.10
2022-10-17T15:39:42.075Z,5.50
2022-10-17T15:41:44.090Z,5.65
2022-10-17T15:43:48.106Z,5.63
2022-10-17T15:45:49.579Z,5.57
2022-10-17T15:48:06.995Z,6.30
2022-10-17T15:50:14.139Z,5.90
2022-10-17T15:52:15.588Z,7.78
2022-10-17T15:54:17.043Z,7.63
2022-10-17T15:56:32.213Z,5.72
2022-10-17T15:58:40.227Z,6.63
2022-10-17T16:00:42.035Z,5.68
2022-10-17T16:02:43.588Z,6.00
2022-10-17T16:04:45.323Z,13.75
2022-10-17T16:06:46.760Z,11.73
2022-10-17T16:08:49.434Z,7.68
2022-10-17T16:10:51.818Z,16.33
2022-10-17T16:12:53.244Z,11.85
2022-10-17T16:14:54.912Z,9.98
2022-10-17T16:16:56.336Z,7.15
2022-10-17T16:18:58.262Z,9.85
2022-10-17T16:20:59.757Z,6.90
2022-10-17T16:23:03.022Z,7.18
2022-10-17T16:25:10.180Z,6.93
2022-10-17T16:27:11.638Z,10.27
2022-10-17T16:29:13.131Z,14.77
2022-10-17T16:31:26.658Z,9.68
2022-10-17T16:33:28.134Z,7.47
2022-10-17T16:35:33.300Z,7.50
2022-10-17T16:39:39.497Z,9.52
2022-10-17T16:41:41.003Z,8.30
2022-10-17T16:43:42.413Z,10.00
2022-10-17T16:45:43.916Z,16.13
2022-10-17T16:47:46.760Z,12.23
2022-10-17T16:49:48.334Z,10.10
2022-10-17T16:51:49.871Z,9.95
2022-10-17T16:53:54.332Z,9.50
2022-10-17T16:56:03.108Z,9.13
2022-10-17T16:58:04.539Z,13.88
2022-10-17T17:00:07.443Z,11.93
2022-10-17T17:02:10.752Z,10.07
2022-10-17T17:04:12.281Z,12.90
2022-10-17T17:06:26.672Z,10.13
2022-10-17T17:08:28.146Z,12.50
2022-10-17T17:10:29.587Z,10.02
2022-10-17T17:12:33.684Z,9.77
2022-10-17T17:14:35.256Z,12.57
2022-10-17T17:16:36.730Z,22.92
2022-10-17T17:18:38.866Z,11.73
2022-10-17T17:20:41.631Z,10.15
2022-10-17T17:22:43.091Z,9.82
2022-10-17T17:24:44.675Z,13.93
2022-10-17T17:26:47.130Z,12.02
2022-10-17T17:28:50.080Z,10.57
2022-10-17T17:30:51.943Z,10.65
2022-10-17T17:32:53.358Z,13.63
2022-10-17T17:34:55.117Z,10.32
2022-10-17T17:36:56.549Z,10.45
2022-10-17T17:39:00.005Z,13.23
2022-10-17T17:41:02.569Z,8.48
2022-10-17T17:43:04.353Z,10.00
2022-10-17T17:45:06.379Z,10.38
2022-10-17T17:47:07.872Z,9.27
2022-10-17T17:49:10.101Z,7.18
2022-10-17T17:51:14.949Z,9.45
2022-10-17T17:53:17.731Z,12.32
2022-10-17T17:55:19.245Z,9.32
2022-10-17T17:57:20.733Z,6.45
2022-10-17T17:59:22.202Z,7.72
2022-10-17T18:01:26.342Z,5.82
2022-10-17T18:03:28.136Z,5.95
2022-10-17T18:05:30.108Z,4.28
2022-10-17T18:07:31.569Z,5.88
2022-10-17T18:09:32.988Z,9.95
2022-10-17T18:11:35.373Z,5.68
2022-10-17T18:13:36.836Z,2.47
2022-10-17T18:15:41.160Z,4.55
2022-10-17T18:17:42.770Z,3.08
2022-10-17T18:19:44.197Z,2.72
2022-10-17T18:21:45.728Z,2.47
2022-10-17T18:23:48.640Z,9.18
2022-10-17T18:26:01.039Z,7.78
2022-10-17T18:28:03.332Z,2.55
2022-10-17T18:30:05.674Z,4.18
2022-10-17T18:32:07.130Z,3.45
2022-10-17T18:34:08.569Z,3.03
2022-10-17T18:36:12.418Z,3.00
2022-10-17T18:38:13.902Z,5.10
2022-10-17T18:40:15.472Z,6.65
2022-10-17T18:42:17.858Z,4.22
2022-10-17T18:44:19.489Z,4.43
2022-10-17T18:46:23.958Z,2.95
2022-10-17T18:48:25.383Z,2.85
2022-10-17T18:50:26.850Z,3.03
2022-10-17T18:52:28.340Z,3.88
2022-10-17T18:54:32.130Z,5.47
2022-10-17T18:56:33.587Z,3.38
2022-10-17T18:58:36.344Z,4.28
2022-10-17T19:00:37.845Z,3.10
2022-10-17T19:02:39.318Z,3.30
2022-10-17T19:04:40.854Z,6.55
2022-10-17T19:06:42.667Z,5.15
2022-10-17T19:08:44.859Z,3.50
2022-10-17T19:10:46.294Z,4.22
2022-10-17T19:12:47.739Z,3.88
2022-10-17T19:14:50.699Z,5.28
2022-10-17T19:16:52.678Z,4.70
2022-10-17T19:18:57.210Z,7.72
2022-10-17T19:21:06.672Z,8.07
2022-10-17T19:23:08.096Z,3.40
2022-10-17T19:25:09.785Z,4.13
2022-10-17T19:27:12.224Z,4.45
2022-10-17T19:29:15.245Z,3.90
2022-10-17T19:31:18.025Z,6.68
2022-10-17T19:33:19.943Z,5.03
2022-10-17T19:35:21.491Z,3.53
2022-10-17T19:37:22.943Z,6.63
2022-10-17T19:39:25.132Z,6.53
2022-10-17T19:41:27.193Z,5.55
2022-10-17T19:43:28.735Z,3.50
2022-10-17T19:45:30.173Z,4.75
2022-10-17T19:47:31.610Z,6.65
2022-10-17T19:49:33.110Z,12.80
2022-10-17T19:51:34.597Z,3.78
2022-10-17T19:53:36.251Z,7.78
2022-10-17T19:55:37.657Z,4.22
2022-10-17T19:57:39.205Z,4.85
2022-10-17T19:59:40.653Z,5.07
2022-10-17T20:01:42.470Z,3.17
2022-10-17T20:03:44.326Z,5.05
2022-10-17T20:05:46.588Z,3.63
2022-10-17T20:07:48.000Z,11.13
2022-10-17T20:09:49.489Z,11.52
2022-10-17T20:11:50.941Z,6.00
2022-10-17T20:13:53.590Z,4.70
2022-10-17T20:15:56.086Z,5.13
2022-10-17T20:17:57.656Z,2.92
2022-10-17T20:19:59.077Z,5.00
2022-10-17T20:22:00.502Z,3.00
2022-10-17T20:24:03.882Z,5.05
2022-10-17T20:28:38.497Z,3.97
2022-10-17T20:30:46.498Z,6.10
2022-10-17T20:32:48.527Z,7.07
2022-10-17T20:34:49.937Z,3.88
2022-10-17T20:36:51.569Z,8.68
2022-10-17T20:38:54.999Z,2.70
2022-10-17T20:41:00.872Z,5.75
2022-10-17T20:43:06.730Z,4.60
2022-10-17T20:45:08.629Z,4.22
2022-10-17T20:47:16.153Z,3.47
2022-10-17T20:49:19.700Z,3.63
2022-10-17T20:51:21.842Z,6.50
2022-10-17T20:53:38.714Z,3.88
2022-10-17T20:55:40.606Z,7.20
2022-10-17T20:57:42.063Z,3.05
2022-10-17T20:59:45.507Z,4.15
2022-10-17T21:01:47.802Z,3.38
2022-10-17T21:03:50.047Z,5.40
2022-10-17T21:05:51.534Z,3.35
2022-10-17T21:07:52.982Z,5.97
2022-10-17T21:09:54.404Z,7.35
2022-10-17T21:11:56.829Z,7.53
2022-10-17T21:14:03.559Z,7.47
2022-10-17T21:16:18.344Z,6.30
2022-10-17T21:18:19.753Z,5.93
2022-10-17T21:20:21.195Z,8.23
2022-10-17T21:22:22.702Z,4.95
2022-10-17T21:24:24.124Z,7.53
2022-10-17T21:26:25.768Z,10.98
2022-10-17T21:28:27.364Z,10.00
2022-10-17T21:30:28.929Z,6.38
2022-10-17T21:32:40.291Z,10.88
2022-10-17T21:34:51.795Z,10.93
2022-10-17T21:36:53.612Z,6.72
2022-10-17T21:38:56.610Z,6.93
2022-10-17T21:40:58.113Z,15.80
2022-10-17T21:42:59.516Z,7.90
2022-10-17T21:45:00.951Z,14.30
2022-10-17T21:47:02.495Z,7.85
2022-10-17T21:49:03.925Z,13.65
2022-10-17T21:51:08.725Z,9.73
2022-10-17T21:53:10.166Z,29.83
2022-10-17T21:55:11.604Z,21.70
2022-10-17T21:57:13.083Z,11.00
2022-10-17T21:59:14.580Z,12.65
2022-10-17T22:01:19.108Z,15.10
2022-10-17T22:03:20.580Z,10.93
2022-10-17T22:05:22.057Z,8.95
2022-10-17T22:07:23.521Z,11.30
2022-10-17T22:09:25.989Z,8.40
2022-10-17T22:11:30.650Z,9.60
2022-10-17T22:13:32.104Z,10.00
2022-10-17T22:15:33.636Z,9.18
2022-10-17T22:17:35.040Z,9.85
2022-10-17T22:19:36.623Z,9.73
2022-10-17T22:21:38.102Z,14.43
2022-10-17T22:23:44.410Z,22.40
2022-10-17T22:25:53.785Z,41.55
2022-10-17T22:27:55.201Z,22.70
2022-10-17T22:29:56.727Z,12.98
2022-10-17T22:31:58.152Z,13.13
2022-10-17T22:33:59.891Z,17.02
2022-10-17T22:36:02.059Z,11.73
2022-10-17T22:38:03.523Z,14.45
2022-10-17T22:40:06.245Z,15.48
2022-10-17T22:42:07.664Z,12.85
2022-10-17T22:44:09.241Z,15.82
2022-10-17T22:46:13.258Z,25.67
2022-10-17T22:48:14.683Z,34.13
2022-10-17T22:50:16.138Z,18.65
2022-10-17T22:52:17.556Z,17.10
2022-10-17T22:54:19.024Z,15.98
2022-10-17T22:56:21.595Z,18.42
2022-10-17T22:58:23.824Z,18.25
2022-10-17T23:00:25.385Z,15.77
2022-10-17T23:02:27.185Z,16.30
2022-10-17T23:04:28.616Z,15.40
2022-10-17T23:06:30.066Z,22.60
2022-10-17T23:08:31.932Z,16.20
2022-10-17T23:10:34.010Z,20.80
2022-10-17T23:12:35.430Z,19.38
2022-10-17T23:14:43.107Z,21.00
2022-10-17T23:16:44.532Z,23.00
2022-10-17T23:18:46.028Z,19.98
2022-10-17T23:20:47.688Z,23.40
2022-10-17T23:22:49.143Z,17.33
2022-10-17T23:24:50.649Z,20.92
2022-10-17T23:26:52.090Z,22.35
2022-10-17T23:28:54.745Z,23.33
2022-10-17T23:30:56.274Z,18.63
2022-10-17T23:32:57.691Z,21.67
2022-10-17T23:34:59.090Z,19.67
2022-10-17T23:37:00.541Z,19.95
2022-10-17T23:39:02.409Z,19.08
2022-10-17T23:41:04.116Z,24.63
2022-10-17T23:43:05.588Z,19.42
2022-10-17T23:45:07.773Z,21.10
2022-10-17T23:47:09.211Z,22.77
2022-10-17T23:49:10.857Z,21.85
2022-10-17T23:51:12.653Z,23.08
2022-10-17T23:53:14.085Z,25.42
2022-10-17T23:55:15.689Z,18.88
2022-10-17T23:57:17.327Z,23.05
2022-10-17T23:59:18.752Z,25.85
